Site Report
Select Start Month: Select End Month:
Narragansett areas (Apr 14, 2011 - Apr 17, 2011)
Narragansett areas (RIWCNARR) Narragansett, RI (USA) Lat,Long: 41.40037,-71.47484 Map Elevation: 30 feet 36 species 3 trips (0 non-trip sightings)
Roads, parks and shorelines between Narragansett, Point Judith and Galilee on the southern Rhode Island coast. Terrestrial habitats are a mix of mature mixed hardwood stands (red maple, white oak, black gum and others) and variously wooded residential areas, brushy openings, a few pastures, hayfields and golf courses, several small ponds. Coastal habitats include saltmarsh, mudflats and muddy, sandy and rocky shorelines.
Species Sightings Trips First Date Last Date Avg/Sighting Avg/Trip Max Ct
Brant 1   1 04/15/2011 04/15/2011 10.0 3.3 10
Canada Goose 2   2 04/15/2011 04/16/2011 2.0 1.3 2
Mute Swan 2   2 04/15/2011 04/16/2011 2.0 1.3 2
Common Eider 2   2 04/15/2011 04/15/2011 8.0 5.3 13
Red-breasted Merganser 2   2 04/15/2011 04/16/2011 3.5 2.3 5
Common Loon 1   1 04/15/2011 04/15/2011 1.0 0.3 1
Red-necked Grebe 1   1 04/16/2011 04/16/2011 2.0 0.7 2
Double-crested Cormorant 3   3 04/15/2011 04/16/2011 3.0 3.0 5
Great Egret 1   1 04/16/2011 04/16/2011 2.0 0.7 2
Turkey Vulture 1   1 04/16/2011 04/16/2011 1.0 0.3 1
Osprey 1   1 04/16/2011 04/16/2011 4.0 1.3 4
Killdeer 2   2 04/15/2011 04/16/2011 1.0 0.7 1
Ring-billed Gull 1   1 04/16/2011 04/16/2011 2.0 0.7 2
Herring Gull 3   3 04/15/2011 04/16/2011 32.0 32.0 60
Great Black-backed Gull 2   2 04/15/2011 04/16/2011 25.0 16.7 40
Rock Pigeon 2   2 04/15/2011 04/16/2011 4.0 2.7 5
Mourning Dove 2   2 04/15/2011 04/16/2011 4.0 2.7 6
Northern Flicker 1   1 04/16/2011 04/16/2011 1.0 0.3 1
American Crow 1   1 04/16/2011 04/16/2011 4.0 1.3 4
Black-capped Chickadee 1   1 04/16/2011 04/16/2011 7.0 2.3 7
Tufted Titmouse 1   1 04/16/2011 04/16/2011 5.0 1.7 5
Brown Creeper 1   1 04/16/2011 04/16/2011 1.0 0.3 1
Carolina Wren 1   1 04/16/2011 04/16/2011 1.0 0.3 1
House Wren 1   1 04/16/2011 04/16/2011 1.0 0.3 1
American Robin 2   2 04/15/2011 04/16/2011 35.0 23.3 65
Northern Mockingbird 1   1 04/16/2011 04/16/2011 2.0 0.7 2
European Starling 2   2 04/15/2011 04/16/2011 11.5 7.7 20
Song Sparrow 2   2 04/15/2011 04/16/2011 6.0 4.0 10
Dark-eyed Junco 1   1 04/16/2011 04/16/2011 1.0 0.3 1
Northern Cardinal 1   1 04/16/2011 04/16/2011 2.0 0.7 2
Red-winged Blackbird 2   2 04/15/2011 04/16/2011 20.5 13.7 40
Common Grackle 1   1 04/16/2011 04/16/2011 30.0 10.0 30
Brown-headed Cowbird 1   1 04/16/2011 04/16/2011 4.0 1.3 4
House Finch 1   1 04/16/2011 04/16/2011 20.0 6.7 20
American Goldfinch 1   1 04/16/2011 04/16/2011 2.0 0.7 2
House Sparrow 1   1 04/16/2011 04/16/2011 15.0 5.0 15
Home